createdAt,value
2022-09-09T00:00:44.949Z,16.40
2022-09-09T00:01:44.900Z,16.10
2022-09-09T00:02:44.985Z,17.10
2022-09-09T00:03:44.926Z,16.40
2022-09-09T00:04:44.881Z,16.30
2022-09-09T00:05:44.860Z,15.80
2022-09-09T00:06:44.833Z,15.00
2022-09-09T00:07:44.768Z,14.80
2022-09-09T00:08:45.411Z,14.70
2022-09-09T00:09:44.791Z,14.60
2022-09-09T00:10:44.803Z,14.30
2022-09-09T00:11:44.806Z,15.70
2022-09-09T00:12:44.780Z,15.30
2022-09-09T00:13:44.741Z,15.20
2022-09-09T00:14:45.432Z,16.20
2022-09-09T00:15:45.478Z,16.40
2022-09-09T00:16:44.724Z,16.00
2022-09-09T00:17:44.695Z,16.00
2022-09-09T00:18:44.690Z,15.40
2022-09-09T00:19:44.643Z,15.80
2022-09-09T00:20:44.664Z,15.30
2022-09-09T00:21:44.657Z,16.20
2022-09-09T00:22:45.422Z,16.10
2022-09-09T00:23:44.629Z,15.40
2022-09-09T00:24:44.798Z,14.50
2022-09-09T00:25:44.588Z,14.40
2022-09-09T00:26:44.636Z,14.70
2022-09-09T00:27:45.372Z,15.10
2022-09-09T00:28:44.564Z,14.20
2022-09-09T00:29:45.257Z,14.70
2022-09-09T00:30:44.622Z,15.60
2022-09-09T00:31:44.578Z,14.40
2022-09-09T00:32:44.542Z,14.70
2022-09-09T00:33:45.455Z,15.60
2022-09-09T00:34:45.386Z,17.10
2022-09-09T00:35:45.437Z,17.60
2022-09-09T00:36:44.489Z,19.50
2022-09-09T00:37:44.435Z,16.70
2022-09-09T00:38:44.436Z,15.80
2022-09-09T00:39:44.989Z,15.60
2022-09-09T00:40:44.425Z,16.00
2022-09-09T00:41:44.411Z,16.20
2022-09-09T00:42:44.474Z,15.80
2022-09-09T00:43:45.583Z,16.30
2022-09-09T00:44:44.392Z,17.30
2022-09-09T00:45:44.398Z,18.20
2022-09-09T00:46:44.432Z,15.90
2022-09-09T00:47:44.409Z,16.00
2022-09-09T00:48:44.619Z,15.90
2022-09-09T00:49:44.358Z,15.30
2022-09-09T00:50:44.286Z,14.60
2022-09-09T00:51:44.326Z,15.60
2022-09-09T00:52:44.329Z,16.10
2022-09-09T00:53:44.307Z,16.20
2022-09-09T00:54:44.325Z,14.30
2022-09-09T00:55:44.279Z,13.80
2022-09-09T00:56:44.253Z,13.30
2022-09-09T00:57:45.126Z,15.40
2022-09-09T00:58:44.271Z,14.80
2022-09-09T00:59:44.260Z,15.20
2022-09-09T01:00:44.243Z,15.40
2022-09-09T01:01:44.257Z,15.30
2022-09-09T01:02:44.262Z,14.20
2022-09-09T01:03:44.171Z,15.50
2022-09-09T01:04:44.153Z,15.40
2022-09-09T01:05:44.189Z,15.50
2022-09-09T01:06:44.176Z,15.40
2022-09-09T01:07:44.166Z,15.10
2022-09-09T01:08:44.160Z,14.90
2022-09-09T01:09:44.095Z,15.10
2022-09-09T01:10:44.668Z,15.80
2022-09-09T01:11:44.820Z,15.00
2022-09-09T01:12:44.144Z,18.20
2022-09-09T01:13:45.267Z,18.50
2022-09-09T01:14:44.032Z,18.10
2022-09-09T01:15:44.070Z,16.90
2022-09-09T01:16:44.118Z,17.60
2022-09-09T01:17:44.988Z,16.70
2022-09-09T01:18:44.970Z,16.00
2022-09-09T01:19:44.624Z,17.40
2022-09-09T01:20:44.020Z,16.70
2022-09-09T01:21:43.975Z,18.30
2022-09-09T01:22:44.006Z,17.80
2022-09-09T01:23:44.027Z,18.50
2022-09-09T01:24:43.971Z,19.70
2022-09-09T01:25:43.940Z,18.80
2022-09-09T01:26:43.982Z,18.60
2022-09-09T01:27:43.939Z,20.60
2022-09-09T01:28:43.896Z,19.50
2022-09-09T01:29:43.925Z,20.20
2022-09-09T01:30:44.026Z,20.70
2022-09-09T01:31:43.859Z,19.70
2022-09-09T01:32:43.859Z,20.10
2022-09-09T01:33:43.862Z,20.80
2022-09-09T01:34:43.817Z,19.20
2022-09-09T01:35:44.525Z,20.10
2022-09-09T01:36:43.888Z,18.00
2022-09-09T01:37:43.829Z,17.70
2022-09-09T01:38:43.761Z,18.40
2022-09-09T01:39:43.864Z,18.20
2022-09-09T01:40:44.587Z,18.10
2022-09-09T01:41:43.809Z,18.50
2022-09-09T01:42:43.812Z,18.70
2022-09-09T01:43:43.780Z,18.80
2022-09-09T01:44:43.714Z,17.50
2022-09-09T01:45:43.742Z,19.00
2022-09-09T01:46:43.703Z,18.50
2022-09-09T01:47:43.743Z,18.70
2022-09-09T01:48:43.670Z,17.00
2022-09-09T01:49:43.712Z,18.60
2022-09-09T01:50:43.653Z,18.00
2022-09-09T01:51:43.651Z,19.50
2022-09-09T01:52:43.659Z,19.80
2022-09-09T01:53:43.677Z,19.40
2022-09-09T01:54:45.257Z,18.70
2022-09-09T02:45:01.780Z,14.30
2022-09-09T02:46:02.821Z,14.40
2022-09-09T02:47:02.783Z,15.90
2022-09-09T02:48:02.752Z,28.80
2022-09-09T02:49:02.745Z,30.90
2022-09-09T02:50:02.674Z,27.00
2022-09-09T02:51:02.666Z,27.40
2022-09-09T02:53:13.057Z,15.40
2022-09-09T02:54:14.095Z,16.10
2022-09-09T02:55:13.984Z,16.00
2022-09-09T02:56:13.923Z,18.10
2022-09-09T02:57:13.953Z,18.20
2022-09-09T02:58:13.963Z,17.30
2022-09-09T02:59:13.971Z,18.20
2022-09-09T03:00:13.941Z,19.10
2022-09-09T03:01:14.002Z,16.00
2022-09-09T03:02:13.928Z,15.70
2022-09-09T03:03:13.876Z,15.50
2022-09-09T03:04:13.910Z,16.30
2022-09-09T03:05:13.857Z,16.80
2022-09-09T03:06:13.865Z,17.00
2022-09-09T03:07:13.811Z,17.70
2022-09-09T03:08:13.786Z,16.60
2022-09-09T03:09:13.778Z,17.80
2022-09-09T03:10:13.822Z,17.00
2022-09-09T03:11:13.807Z,17.90
2022-09-09T03:12:13.758Z,18.30
2022-09-09T03:13:13.747Z,18.20
2022-09-09T03:14:13.762Z,18.20
2022-09-09T03:15:13.785Z,17.50
2022-09-09T03:16:13.852Z,17.80
2022-09-09T03:17:13.744Z,17.10
2022-09-09T03:18:13.708Z,17.90
2022-09-09T03:19:13.740Z,17.40
2022-09-09T03:20:13.714Z,17.90
2022-09-09T03:21:13.664Z,17.20
2022-09-09T03:22:13.683Z,16.60
2022-09-09T03:23:15.784Z,16.60
2022-09-09T03:24:13.615Z,16.60
2022-09-09T03:25:13.683Z,16.40
2022-09-09T03:26:13.640Z,16.50
2022-09-09T03:27:13.606Z,16.90
2022-09-09T03:28:13.592Z,18.10
2022-09-09T03:29:13.576Z,18.80
2022-09-09T03:30:13.610Z,17.40
2022-09-09T03:31:13.664Z,20.60
2022-09-09T03:32:13.591Z,18.30
2022-09-09T03:33:14.316Z,17.90
2022-09-09T03:34:13.589Z,18.10
2022-09-09T03:35:13.517Z,17.90
2022-09-09T03:36:13.530Z,18.10
2022-09-09T03:37:13.530Z,18.40
2022-09-09T03:38:13.466Z,17.90
2022-09-09T03:39:13.486Z,18.20
2022-09-09T03:40:13.520Z,17.80
2022-09-09T03:41:13.435Z,18.30
2022-09-09T03:42:13.493Z,17.90
2022-09-09T03:43:13.422Z,18.40
2022-09-09T03:44:13.413Z,18.10
2022-09-09T03:45:13.435Z,19.70
2022-09-09T03:46:13.465Z,18.20
2022-09-09T03:47:13.428Z,17.50
2022-09-09T03:48:13.342Z,17.00
2022-09-09T03:49:13.341Z,17.40
2022-09-09T03:50:13.375Z,17.20
2022-09-09T03:51:13.362Z,16.80
2022-09-09T03:52:13.332Z,17.50
2022-09-09T03:53:13.361Z,17.60
2022-09-09T03:54:13.305Z,16.30
2022-09-09T03:55:13.574Z,16.90
2022-09-09T03:56:13.280Z,16.60
2022-09-09T03:57:13.272Z,17.10
2022-09-09T03:58:13.235Z,17.20
2022-09-09T03:59:13.239Z,17.80
2022-09-09T04:00:13.243Z,16.90
2022-09-09T04:01:13.293Z,17.70
2022-09-09T04:02:13.319Z,17.70
2022-09-09T04:03:13.199Z,19.20
2022-09-09T04:04:13.216Z,17.90
2022-09-09T04:05:13.183Z,17.80
2022-09-09T04:06:13.191Z,18.30
2022-09-09T04:07:13.121Z,17.90
2022-09-09T04:08:13.162Z,18.20
2022-09-09T04:09:13.133Z,17.70
2022-09-09T04:10:13.143Z,18.40
2022-09-09T04:11:13.142Z,18.50
2022-09-09T04:12:13.137Z,18.50
2022-09-09T04:13:13.139Z,19.60
2022-09-09T04:14:13.062Z,19.90
2022-09-09T04:15:13.066Z,19.70
2022-09-09T04:16:13.165Z,19.30
2022-09-09T04:17:13.773Z,18.50
2022-09-09T04:18:15.066Z,18.00
2022-09-09T04:19:13.052Z,18.00
2022-09-09T04:20:13.015Z,19.00
2022-09-09T04:21:13.022Z,17.00
2022-09-09T04:22:12.980Z,18.20
2022-09-09T04:23:12.991Z,17.20
2022-09-09T04:24:13.000Z,17.60
2022-09-09T04:25:12.953Z,16.90
2022-09-09T04:26:12.976Z,18.00
2022-09-09T04:27:12.949Z,18.70
2022-09-09T04:28:12.948Z,17.80
2022-09-09T04:29:12.931Z,18.70
2022-09-09T04:30:12.889Z,18.10
2022-09-09T04:31:12.976Z,18.20
2022-09-09T04:32:12.858Z,18.80
2022-09-09T04:33:12.912Z,19.10
2022-09-09T04:34:12.862Z,18.20
2022-09-09T04:35:12.839Z,19.30
2022-09-09T04:36:12.869Z,19.70
2022-09-09T04:37:12.840Z,20.20
2022-09-09T04:38:12.835Z,21.30
2022-09-09T04:39:12.854Z,21.50
2022-09-09T04:40:12.795Z,21.10
2022-09-09T04:41:12.776Z,19.80
2022-09-09T04:42:12.783Z,20.00
2022-09-09T04:43:14.604Z,20.90
2022-09-09T04:44:12.790Z,20.20
2022-09-09T04:45:12.759Z,19.80
2022-09-09T04:46:12.815Z,18.80
2022-09-09T04:47:12.696Z,19.30
2022-09-09T04:48:12.727Z,19.60
2022-09-09T04:49:15.178Z,18.10
2022-09-09T04:50:12.668Z,18.50
2022-09-09T04:51:12.690Z,18.50
2022-09-09T04:52:12.670Z,18.70
2022-09-09T04:53:12.657Z,18.70
2022-09-09T04:54:12.630Z,19.70
2022-09-09T04:55:12.643Z,19.00
2022-09-09T04:56:12.578Z,19.40
2022-09-09T04:57:17.929Z,18.30
2022-09-09T04:58:12.610Z,18.10
2022-09-09T04:59:12.561Z,18.00
2022-09-09T05:00:12.573Z,17.60
2022-09-09T05:01:12.768Z,18.50
2022-09-09T05:02:12.629Z,18.50
2022-09-09T05:03:12.561Z,18.30
2022-09-09T05:04:12.534Z,18.00
2022-09-09T05:05:12.481Z,17.70
2022-09-09T05:06:12.491Z,18.20
2022-09-09T05:07:12.529Z,18.30
2022-09-09T05:08:12.522Z,17.60
2022-09-09T05:09:12.484Z,18.20
2022-09-09T05:10:12.414Z,18.40
2022-09-09T05:11:12.432Z,18.60
2022-09-09T05:12:12.426Z,18.70
2022-09-09T05:13:12.457Z,18.80
2022-09-09T05:14:12.427Z,18.30
2022-09-09T05:15:12.413Z,17.10
2022-09-09T05:16:12.494Z,18.10
2022-09-09T05:17:12.327Z,17.80
2022-09-09T05:18:12.313Z,18.40
2022-09-09T05:19:12.402Z,18.40
2022-09-09T05:20:17.275Z,18.50
2022-09-09T05:21:12.303Z,17.90
2022-09-09T05:22:12.310Z,19.20
2022-09-09T05:23:12.289Z,18.80
2022-09-09T05:24:12.284Z,18.30
2022-09-09T05:25:12.329Z,18.20
2022-09-09T05:26:16.581Z,18.30
2022-09-09T05:27:12.279Z,17.10
2022-09-09T05:28:12.262Z,16.70
2022-09-09T05:29:12.260Z,17.90
2022-09-09T05:30:12.272Z,17.50
2022-09-09T05:31:12.300Z,16.90
2022-09-09T05:32:15.378Z,18.90
2022-09-09T05:33:12.188Z,19.20
2022-09-09T05:34:12.175Z,19.10
2022-09-09T05:35:12.181Z,19.10
2022-09-09T05:36:12.173Z,19.30
2022-09-09T05:37:12.146Z,18.90
2022-09-09T05:38:12.130Z,18.20
2022-09-09T05:39:12.099Z,17.60
2022-09-09T05:40:12.262Z,17.70
2022-09-09T05:41:12.139Z,18.50
2022-09-09T05:42:12.072Z,18.20
2022-09-09T05:43:12.118Z,18.40
2022-09-09T05:44:12.106Z,18.20
2022-09-09T05:45:12.078Z,17.80
2022-09-09T05:46:12.210Z,17.30
2022-09-09T05:47:12.040Z,19.10
2022-09-09T05:48:12.011Z,19.20
2022-09-09T05:49:11.994Z,18.60
2022-09-09T05:50:11.970Z,18.80
2022-09-09T05:51:11.999Z,19.20
2022-09-09T05:52:11.965Z,19.50
2022-09-09T05:53:11.989Z,18.70
2022-09-09T05:54:12.007Z,18.10
2022-09-09T05:55:11.975Z,19.30
2022-09-09T05:56:11.900Z,19.30
2022-09-09T05:57:11.921Z,18.50
2022-09-09T05:58:11.930Z,18.60
2022-09-09T05:59:11.909Z,19.10
2022-09-09T06:00:11.880Z,17.90
2022-09-09T06:01:11.881Z,18.90
2022-09-09T06:02:12.008Z,18.70
2022-09-09T06:03:12.000Z,18.70
2022-09-09T06:04:11.852Z,18.00
2022-09-09T06:05:11.834Z,18.10
2022-09-09T06:06:11.799Z,18.20
2022-09-09T06:07:11.987Z,18.50
2022-09-09T06:08:11.832Z,19.30
2022-09-09T06:09:11.792Z,19.60
2022-09-09T06:10:11.822Z,18.70
2022-09-09T06:11:11.750Z,18.80
2022-09-09T06:12:11.770Z,19.30
2022-09-09T06:13:11.720Z,17.80
2022-09-09T06:14:11.769Z,17.50
2022-09-09T06:15:11.730Z,18.00
2022-09-09T06:16:11.724Z,18.00
2022-09-09T06:17:11.696Z,17.50
2022-09-09T06:18:11.664Z,18.20
2022-09-09T06:19:11.678Z,18.40
2022-09-09T06:20:11.697Z,17.90
2022-09-09T06:21:11.657Z,18.30
2022-09-09T06:22:11.640Z,18.40
2022-09-09T06:23:11.647Z,18.50
2022-09-09T06:24:11.656Z,18.70
2022-09-09T06:25:11.582Z,18.60
2022-09-09T06:26:12.374Z,18.30
2022-09-09T06:27:11.605Z,19.30
2022-09-09T06:28:11.532Z,18.00
2022-09-09T06:29:11.556Z,18.90
2022-09-09T06:30:11.579Z,20.10
2022-09-09T06:31:11.599Z,18.40
2022-09-09T06:32:11.549Z,18.70
2022-09-09T06:33:11.507Z,18.70
2022-09-09T06:34:11.514Z,18.80
2022-09-09T06:35:11.530Z,18.40
2022-09-09T06:36:11.474Z,18.80
2022-09-09T06:37:11.489Z,18.50
2022-09-09T06:38:11.486Z,18.60
2022-09-09T06:39:14.759Z,18.70
2022-09-09T06:40:11.566Z,17.80
2022-09-09T06:41:11.469Z,18.10
2022-09-09T06:42:11.446Z,17.80
2022-09-09T06:43:11.427Z,17.70
2022-09-09T06:44:11.391Z,18.40
2022-09-09T06:45:11.362Z,17.50
2022-09-09T06:46:11.453Z,17.60
2022-09-09T06:47:11.368Z,16.60
2022-09-09T06:48:11.358Z,17.70
2022-09-09T06:49:11.343Z,18.40
2022-09-09T06:50:11.341Z,18.30
2022-09-09T06:51:11.310Z,18.90
2022-09-09T06:52:11.346Z,18.70
2022-09-09T06:53:11.301Z,18.60
2022-09-09T06:54:11.291Z,18.20
2022-09-09T06:55:11.270Z,17.80
2022-09-09T06:56:13.743Z,18.80
2022-09-09T06:58:11.245Z,18.00
2022-09-09T06:59:11.262Z,18.90
2022-09-09T07:00:11.192Z,19.00
2022-09-09T07:01:11.230Z,17.50
2022-09-09T07:02:11.301Z,17.60
2022-09-09T07:03:11.225Z,17.50
2022-09-09T07:04:11.166Z,17.90
2022-09-09T07:05:11.180Z,18.40
2022-09-09T07:06:11.110Z,18.80
2022-09-09T07:07:11.138Z,17.90
2022-09-09T07:08:11.120Z,19.30
2022-09-09T07:09:11.136Z,18.00
2022-09-09T07:10:11.072Z,17.70
2022-09-09T07:11:12.528Z,18.00
2022-09-09T07:12:11.081Z,19.10
2022-09-09T07:13:11.256Z,18.00
2022-09-09T07:14:11.094Z,18.40
2022-09-09T07:15:11.057Z,18.20
2022-09-09T07:16:11.041Z,20.00
2022-09-09T07:17:11.024Z,19.10
2022-09-09T07:18:11.017Z,18.30
2022-09-09T07:19:11.023Z,19.50
2022-09-09T07:20:10.993Z,18.90
2022-09-09T07:21:11.011Z,18.00
2022-09-09T07:22:10.923Z,17.40
2022-09-09T07:23:10.937Z,18.60
2022-09-09T07:24:10.963Z,19.60
2022-09-09T07:25:11.011Z,18.80
2022-09-09T07:26:10.910Z,19.30
2022-09-09T07:27:10.900Z,19.40
2022-09-09T07:28:10.932Z,18.40
2022-09-09T07:29:10.878Z,19.60
2022-09-09T07:30:12.179Z,19.10
2022-09-09T07:31:10.923Z,18.40
2022-09-09T07:32:10.837Z,18.80
2022-09-09T07:33:10.848Z,18.80
2022-09-09T07:34:10.861Z,19.90
2022-09-09T07:35:10.806Z,19.30
2022-09-09T07:36:10.800Z,19.30
2022-09-09T07:37:10.784Z,19.90
2022-09-09T07:38:10.809Z,20.00
2022-09-09T07:39:10.781Z,19.50
2022-09-09T07:40:10.862Z,20.00
2022-09-09T07:41:10.781Z,19.90
2022-09-09T07:42:10.710Z,19.40
2022-09-09T07:43:16.691Z,19.80
2022-09-09T07:44:10.704Z,20.60
2022-09-09T07:45:10.710Z,29.90
2022-09-09T07:46:10.779Z,21.10
2022-09-09T07:47:10.682Z,21.60
2022-09-09T07:48:10.687Z,20.90
2022-09-09T07:49:10.658Z,22.00
2022-09-09T07:50:10.637Z,26.30
2022-09-09T07:51:10.652Z,20.40
2022-09-09T07:52:10.650Z,20.60
2022-09-09T07:53:10.619Z,21.50
2022-09-09T07:54:10.607Z,20.20
2022-09-09T07:55:10.622Z,20.00
2022-09-09T07:56:10.600Z,19.00
2022-09-09T07:57:10.603Z,19.80
2022-09-09T07:58:10.578Z,19.50
2022-09-09T07:59:10.531Z,20.80
2022-09-09T08:00:10.558Z,21.20
2022-09-09T08:01:10.571Z,26.40
2022-09-09T08:02:10.486Z,31.80
2022-09-09T08:03:10.499Z,28.90
2022-09-09T08:04:10.571Z,27.30
2022-09-09T08:05:10.449Z,26.00
2022-09-09T08:06:10.465Z,28.30
2022-09-09T08:07:10.452Z,28.60
2022-09-09T08:08:10.460Z,28.10
2022-09-09T08:09:10.425Z,31.00
2022-09-09T08:10:10.438Z,33.20
2022-09-09T08:11:10.428Z,32.50
2022-09-09T08:12:10.399Z,27.60
2022-09-09T08:13:17.976Z,30.40
2022-09-09T08:14:11.156Z,30.60
2022-09-09T08:15:10.368Z,36.50
2022-09-09T08:16:10.393Z,32.40
2022-09-09T08:17:10.366Z,29.60
2022-09-09T08:18:10.342Z,28.70
2022-09-09T08:19:10.426Z,28.70
2022-09-09T08:20:10.327Z,37.10
2022-09-09T08:21:10.308Z,38.20
2022-09-09T08:22:10.274Z,39.20
2022-09-09T08:23:10.279Z,35.90
2022-09-09T08:24:10.251Z,29.20
2022-09-09T08:25:10.290Z,24.60
2022-09-09T08:26:10.260Z,25.40
2022-09-09T08:27:10.240Z,27.60
2022-09-09T08:28:10.233Z,25.10
2022-09-09T08:29:10.184Z,27.60
2022-09-09T08:30:10.217Z,29.10
2022-09-09T08:31:10.345Z,28.80
2022-09-09T08:32:10.194Z,26.80
2022-09-09T08:33:10.175Z,25.70
2022-09-09T08:34:10.180Z,28.00
2022-09-09T08:35:10.149Z,32.20
2022-09-09T08:36:10.160Z,28.70
2022-09-09T08:37:10.151Z,28.10
2022-09-09T08:38:11.083Z,28.20
2022-09-09T08:39:10.089Z,27.40
2022-09-09T08:40:10.110Z,26.30
2022-09-09T08:41:10.041Z,27.30
2022-09-09T08:42:10.091Z,26.90
2022-09-09T08:43:10.067Z,26.50
2022-09-09T08:44:10.025Z,26.50
2022-09-09T08:45:10.058Z,23.20
2022-09-09T08:46:10.096Z,23.80
2022-09-09T08:47:09.997Z,26.90
2022-09-09T08:48:09.954Z,25.20
2022-09-09T08:49:10.035Z,23.60
2022-09-09T08:50:09.958Z,23.70
2022-09-09T08:51:09.952Z,24.90
2022-09-09T08:52:09.937Z,33.60
2022-09-09T08:53:09.948Z,39.40
2022-09-09T08:54:09.920Z,45.80
2022-09-09T08:55:09.914Z,42.90
2022-09-09T08:56:09.911Z,41.20
2022-09-09T08:57:09.891Z,45.00
2022-09-09T08:58:09.889Z,43.80
2022-09-09T08:59:09.860Z,47.90
2022-09-09T09:00:09.870Z,49.10
2022-09-09T09:01:09.985Z,45.70
2022-09-09T09:02:13.428Z,46.50
2022-09-09T09:03:09.858Z,41.70
2022-09-09T09:04:09.919Z,47.80
2022-09-09T09:05:09.853Z,44.70
2022-09-09T09:06:09.795Z,37.80
2022-09-09T09:07:09.775Z,39.90
2022-09-09T09:08:09.723Z,39.20
2022-09-09T09:09:09.764Z,36.30
2022-09-09T09:10:30.402Z,36.30
2022-09-09T09:11:09.722Z,28.80
2022-09-09T09:12:09.724Z,32.70
2022-09-09T09:13:09.752Z,32.20
2022-09-09T09:14:09.722Z,34.90
2022-09-09T09:15:09.739Z,37.00
2022-09-09T09:16:09.724Z,38.10
2022-09-09T09:17:09.664Z,38.10
2022-09-09T09:18:09.687Z,44.30
2022-09-09T09:19:09.677Z,44.70
2022-09-09T09:20:09.632Z,45.80
2022-09-09T09:21:09.638Z,52.30
2022-09-09T09:22:09.562Z,46.50
2022-09-09T09:23:09.598Z,45.40
2022-09-09T09:24:09.607Z,50.30
2022-09-09T09:25:09.894Z,56.10
2022-09-09T09:26:09.603Z,51.80
2022-09-09T09:27:09.619Z,53.60
2022-09-09T09:28:09.555Z,50.50
2022-09-09T09:29:09.516Z,55.40
2022-09-09T09:30:24.249Z,49.40
2022-09-09T09:31:09.565Z,51.20
2022-09-09T09:32:09.472Z,53.70
2022-09-09T09:33:09.479Z,51.80
2022-09-09T09:34:09.443Z,51.20
2022-09-09T09:35:09.444Z,50.80
2022-09-09T09:36:09.406Z,48.80
2022-09-09T09:37:09.470Z,46.90
2022-09-09T09:40:09.421Z,45.60
2022-09-09T09:41:09.431Z,47.80
2022-09-09T09:42:09.397Z,43.90
2022-09-09T09:43:09.385Z,44.70
2022-09-09T09:44:09.363Z,42.80
2022-09-09T09:45:09.333Z,42.10
2022-09-09T09:46:18.013Z,42.50
2022-09-09T09:47:09.365Z,43.40
2022-09-09T09:48:13.819Z,40.60
2022-09-09T09:49:09.304Z,41.00
2022-09-09T09:50:09.276Z,44.50
2022-09-09T09:51:09.315Z,44.10
2022-09-09T09:52:09.223Z,43.50
2022-09-09T09:53:09.243Z,43.30
2022-09-09T09:54:09.237Z,52.50
2022-09-09T09:55:09.243Z,48.20
2022-09-09T09:56:09.243Z,49.70
2022-09-09T09:57:09.265Z,49.70
2022-09-09T09:58:09.214Z,49.80
2022-09-09T09:59:17.877Z,48.40
2022-09-09T10:00:09.208Z,51.60
2022-09-09T10:01:09.236Z,54.70
2022-09-09T10:02:09.178Z,52.80
2022-09-09T10:03:09.162Z,49.90
2022-09-09T10:04:09.131Z,46.20
2022-09-09T10:05:09.176Z,48.10
2022-09-09T10:06:09.121Z,47.90
2022-09-09T10:07:09.157Z,45.60
2022-09-09T10:08:09.058Z,47.60
2022-09-09T10:09:09.108Z,46.50
2022-09-09T10:10:09.075Z,46.80
2022-09-09T10:11:09.061Z,45.20
2022-09-09T10:12:09.054Z,47.40
2022-09-09T10:13:09.053Z,46.10
2022-09-09T10:14:09.032Z,46.50
2022-09-09T10:15:09.030Z,47.10
2022-09-09T10:16:09.093Z,46.90
2022-09-09T10:17:09.005Z,47.40
2022-09-09T10:18:08.998Z,47.40
2022-09-09T10:19:09.642Z,47.60
2022-09-09T10:20:08.970Z,45.90
2022-09-09T10:21:08.957Z,47.70
2022-09-09T10:22:08.976Z,47.30
2022-09-09T10:23:08.927Z,46.30
2022-09-09T10:24:08.915Z,45.20
2022-09-09T10:25:08.897Z,45.80
2022-09-09T10:26:08.895Z,48.60
2022-09-09T10:27:08.891Z,45.40
2022-09-09T10:28:08.875Z,45.80
2022-09-09T10:29:08.857Z,43.70
2022-09-09T10:30:08.849Z,44.00
2022-09-09T10:31:08.868Z,42.50
2022-09-09T10:32:08.836Z,44.20
2022-09-09T10:34:08.812Z,44.00
2022-09-09T10:35:08.803Z,44.70
2022-09-09T10:36:08.792Z,44.30
2022-09-09T10:37:08.764Z,44.60
2022-09-09T10:38:08.808Z,45.60
2022-09-09T10:39:08.747Z,46.10
2022-09-09T10:40:08.826Z,47.70
2022-09-09T10:41:08.685Z,49.90
2022-09-09T10:42:08.699Z,53.30
2022-09-09T10:43:08.723Z,55.30
2022-09-09T10:44:08.686Z,55.70
2022-09-09T10:45:08.650Z,54.80
2022-09-09T10:46:08.682Z,53.40
2022-09-09T10:47:08.730Z,55.50
2022-09-09T10:48:08.683Z,55.70
2022-09-09T10:49:08.634Z,55.20
2022-09-09T10:50:09.189Z,53.80
2022-09-09T10:51:09.308Z,51.90
2022-09-09T10:52:08.600Z,51.40
2022-09-09T10:53:08.654Z,51.90
2022-09-09T10:54:08.566Z,56.30
2022-09-09T10:55:08.543Z,53.30
2022-09-09T10:56:08.538Z,55.40
2022-09-09T10:57:08.504Z,54.50
2022-09-09T10:58:08.523Z,55.30
2022-09-09T10:59:08.519Z,54.40
2022-09-09T11:00:08.477Z,54.40
2022-09-09T11:01:08.533Z,55.00
2022-09-09T11:02:08.491Z,57.50
2022-09-09T11:03:08.507Z,56.90
2022-09-09T11:04:08.556Z,58.10
2022-09-09T11:05:08.421Z,56.70
2022-09-09T11:06:08.495Z,56.30
2022-09-09T11:07:11.652Z,58.20
2022-09-09T11:08:08.432Z,57.30
2022-09-09T11:09:08.420Z,58.30
2022-09-09T11:10:08.499Z,59.40
2022-09-09T11:11:08.379Z,57.80
2022-09-09T11:12:08.360Z,58.20
2022-09-09T11:13:08.378Z,59.40
2022-09-09T11:14:08.355Z,58.30
2022-09-09T11:15:08.365Z,58.50
2022-09-09T11:16:08.330Z,56.90
2022-09-09T11:17:08.330Z,56.60
2022-09-09T11:18:08.310Z,58.00
2022-09-09T11:19:08.310Z,56.00
2022-09-09T11:20:08.332Z,58.80
2022-09-09T11:21:08.238Z,56.90
2022-09-09T11:22:09.425Z,57.90
2022-09-09T11:23:08.282Z,57.40
2022-09-09T11:24:08.246Z,57.90
2022-09-09T11:25:08.274Z,54.00
2022-09-09T11:26:08.212Z,56.10
2022-09-09T11:27:08.215Z,56.00
2022-09-09T11:28:08.184Z,55.20
2022-09-09T11:29:08.210Z,55.80
2022-09-09T11:30:08.163Z,55.20
2022-09-09T11:31:08.225Z,54.40
2022-09-09T11:32:08.178Z,56.00
2022-09-09T11:33:08.148Z,56.40
2022-09-09T11:34:08.145Z,54.60
2022-09-09T11:35:08.138Z,54.20
2022-09-09T11:36:08.251Z,55.40
2022-09-09T11:37:08.118Z,58.60
2022-09-09T11:38:08.078Z,56.20
2022-09-09T11:39:08.049Z,56.70
2022-09-09T11:40:08.181Z,56.90
2022-09-09T11:41:08.054Z,57.30
2022-09-09T11:42:08.031Z,57.70
2022-09-09T11:43:08.291Z,53.80
2022-09-09T11:44:08.007Z,55.30
2022-09-09T11:45:08.018Z,55.10
2022-09-09T11:46:08.032Z,55.60
2022-09-09T11:47:07.986Z,56.00
2022-09-09T11:48:07.943Z,55.10
2022-09-09T11:49:08.013Z,54.40
2022-09-09T11:50:07.935Z,55.00
2022-09-09T11:51:09.201Z,56.80
2022-09-09T11:52:07.908Z,56.50
2022-09-09T11:53:07.944Z,57.10
2022-09-09T11:54:07.885Z,56.90
2022-09-09T11:55:07.908Z,56.20
2022-09-09T11:56:07.893Z,56.50
2022-09-09T11:57:07.889Z,53.80
2022-09-09T11:58:07.869Z,55.00
2022-09-09T11:59:07.904Z,54.80
2022-09-09T12:00:07.838Z,54.00
2022-09-09T12:01:07.876Z,53.10
2022-09-09T12:02:07.858Z,54.10
2022-09-09T12:03:07.845Z,53.30
2022-09-09T12:04:07.855Z,55.20
2022-09-09T12:05:07.934Z,55.30
2022-09-09T12:06:07.790Z,54.90
2022-09-09T12:07:07.807Z,51.50
2022-09-09T12:08:07.762Z,52.30
2022-09-09T12:09:07.804Z,54.30
2022-09-09T12:10:07.735Z,50.50
2022-09-09T12:11:08.457Z,52.40
2022-09-09T12:12:08.468Z,52.90
2022-09-09T12:13:07.767Z,52.40
2022-09-09T12:14:07.683Z,50.40
2022-09-09T12:15:07.706Z,48.50
2022-09-09T12:16:07.682Z,48.50
2022-09-09T12:17:07.666Z,46.20
2022-09-09T12:18:07.635Z,45.20
2022-09-09T12:19:07.713Z,44.70
2022-09-09T12:20:07.650Z,43.70
2022-09-09T12:21:07.610Z,43.40
2022-09-09T12:22:07.612Z,43.80
2022-09-09T12:23:07.590Z,45.20
2022-09-09T12:24:07.596Z,46.70
2022-09-09T12:25:07.689Z,44.20
2022-09-09T12:26:07.578Z,41.20
2022-09-09T12:27:07.608Z,42.00
2022-09-09T12:28:07.580Z,41.70
2022-09-09T12:29:07.560Z,42.80
2022-09-09T12:30:07.497Z,42.00
2022-09-09T12:31:07.629Z,43.90
2022-09-09T12:32:07.504Z,40.90
2022-09-09T12:33:07.517Z,40.80
2022-09-09T12:34:07.521Z,41.60
2022-09-09T12:35:07.562Z,40.20
2022-09-09T12:36:07.468Z,38.60
2022-09-09T12:37:07.476Z,40.10
2022-09-09T12:38:08.006Z,38.90
2022-09-09T12:39:07.433Z,40.40
2022-09-09T12:40:07.517Z,39.90
2022-09-09T12:41:07.404Z,40.70
2022-09-09T12:42:07.394Z,37.90
2022-09-09T12:43:07.526Z,36.90
2022-09-09T12:44:07.406Z,36.90
2022-09-09T12:45:07.342Z,36.80
2022-09-09T12:46:07.391Z,36.40
2022-09-09T12:47:07.367Z,34.60
2022-09-09T12:48:07.381Z,33.20
2022-09-09T12:49:07.508Z,36.30
2022-09-09T12:50:07.337Z,35.80
2022-09-09T12:51:07.314Z,32.60
2022-09-09T12:52:07.271Z,32.40
2022-09-09T12:53:07.285Z,31.60
2022-09-09T12:54:07.254Z,31.00
2022-09-09T12:55:07.255Z,30.20
2022-09-09T12:56:07.286Z,27.00
2022-09-09T12:57:07.273Z,26.10
2022-09-09T12:58:07.258Z,28.00
2022-09-09T12:59:07.224Z,25.90
2022-09-09T13:00:07.232Z,27.00
2022-09-09T13:01:07.309Z,29.10
2022-09-09T13:02:07.326Z,29.10
2022-09-09T13:03:07.214Z,28.70
2022-09-09T13:04:07.847Z,26.60
2022-09-09T13:05:07.162Z,25.30
2022-09-09T13:06:07.171Z,23.20
2022-09-09T13:07:07.121Z,26.50
2022-09-09T13:08:08.515Z,27.20
2022-09-09T13:09:07.163Z,25.90
2022-09-09T13:10:08.256Z,24.80
2022-09-09T13:11:07.104Z,23.90
2022-09-09T13:12:07.204Z,21.30
2022-09-09T13:13:07.102Z,17.70
2022-09-09T13:14:07.067Z,14.60
2022-09-09T13:15:07.036Z,13.30
2022-09-09T13:16:07.077Z,15.60
2022-09-09T13:17:07.002Z,12.80
2022-09-09T13:18:07.024Z,12.80
2022-09-09T13:19:06.996Z,14.00
2022-09-09T13:20:07.056Z,13.00
2022-09-09T13:21:07.530Z,13.40
2022-09-09T13:22:06.975Z,10.40
2022-09-09T13:23:06.935Z,11.60
2022-09-09T13:24:06.996Z,9.50
2022-09-09T13:25:06.901Z,13.50
2022-09-09T13:26:06.924Z,12.10
2022-09-09T13:27:06.918Z,9.30
2022-09-09T13:28:06.923Z,10.40
2022-09-09T13:29:06.879Z,9.80
2022-09-09T13:30:06.902Z,8.80
2022-09-09T13:31:06.958Z,8.50
2022-09-09T13:32:06.845Z,8.90
2022-09-09T13:33:06.862Z,10.40
2022-09-09T13:34:06.874Z,9.70
2022-09-09T13:35:06.872Z,8.10
2022-09-09T13:36:06.845Z,12.00
2022-09-09T13:37:06.812Z,10.10
2022-09-09T13:38:06.805Z,10.00
2022-09-09T13:39:06.776Z,9.60
2022-09-09T13:40:06.881Z,9.50
2022-09-09T13:41:06.796Z,9.50
2022-09-09T13:42:06.759Z,10.20
2022-09-09T13:43:06.779Z,8.30
2022-09-09T13:44:06.764Z,8.30
2022-09-09T13:45:06.742Z,8.80
2022-09-09T13:46:06.771Z,9.10
2022-09-09T13:47:10.285Z,9.10
2022-09-09T13:48:06.700Z,9.30